Wellsburg, North Dakota
Current Conditions -  °F | °C
As of 7:15 AM on Thursday 18 Dec 2014 (Local Time) from K5H4 Reporting Station
Broken Clouds Broken Clouds  
Wind Chill: -15°   Ceiling: 6000
Heat Index: -10°   Visibility: 10mi
Dew Point: -12°   Wind: 6mph
Humidity: 86%   Direction: 180°S
Pressure: 30.11"   Gusts: NA
Location:  47.7822°N, 99.8441°W
Report Text: K5H4 181315Z AUTO 18005KT 10SM BKN060 M10/M12 A3011 RMK AO2
Loading
Personal Weather Stations






























Interactive Weather Map New forecast layout! Learn more

10-Day Weather Forecast

Advertisements
Track Severe Weather on mobile